createdAt,value
2022-08-22T00:02:42.775Z,5.05
2022-08-22T00:09:08.438Z,3.30
2022-08-22T00:14:29.317Z,1.70
2022-08-22T00:19:49.194Z,1.73
2022-08-22T00:25:24.563Z,1.42
2022-08-22T00:30:45.116Z,1.10
2022-08-22T00:36:10.445Z,1.35
2022-08-22T00:41:37.330Z,1.05
2022-08-22T00:47:08.054Z,1.40
2022-08-22T00:52:39.751Z,1.10
2022-08-22T00:58:13.705Z,1.10
2022-08-22T01:03:56.349Z,1.45
2022-08-22T01:09:22.012Z,1.15
2022-08-22T01:14:46.143Z,0.80
2022-08-22T01:20:24.609Z,2.53
2022-08-22T01:26:16.479Z,4.07
2022-08-22T01:32:14.195Z,0.93
2022-08-22T01:38:00.467Z,1.10
2022-08-22T01:43:58.612Z,1.55
2022-08-22T01:49:01.275Z,1.35
2022-08-22T01:54:17.209Z,1.50
2022-08-22T01:59:45.673Z,0.88
2022-08-22T02:05:03.930Z,0.85
2022-08-22T02:10:23.606Z,1.15
2022-08-22T02:16:01.009Z,1.35
2022-08-22T02:21:20.517Z,1.48
2022-08-22T02:26:47.174Z,1.00
2022-08-22T02:32:08.732Z,1.02
2022-08-22T02:37:25.208Z,1.25
2022-08-22T03:47:07.464Z,1.60
2022-08-22T03:53:00.734Z,1.30
2022-08-22T03:58:45.650Z,1.48
2022-08-22T04:04:35.790Z,1.42
2022-08-22T04:10:03.498Z,1.85
2022-08-22T04:15:43.345Z,1.20
2022-08-22T04:21:13.575Z,1.40
2022-08-22T04:26:33.318Z,1.80
2022-08-22T04:31:53.244Z,1.27
2022-08-22T04:37:08.332Z,1.60
2022-08-22T04:42:32.831Z,1.77
2022-08-22T04:47:56.781Z,1.85
2022-08-22T04:53:17.634Z,2.08
2022-08-22T04:58:40.028Z,2.30
2022-08-22T05:03:57.992Z,1.77
2022-08-22T05:09:16.176Z,1.30
2022-08-22T05:14:29.366Z,1.40
2022-08-22T05:19:44.378Z,1.45
2022-08-22T05:24:58.839Z,1.15
2022-08-22T05:30:15.659Z,1.17
2022-08-22T05:35:35.661Z,1.75
2022-08-22T05:40:46.816Z,2.47
2022-08-22T05:45:59.170Z,1.58
2022-08-22T05:51:23.060Z,1.92
2022-08-22T05:56:40.754Z,1.73
2022-08-22T06:01:59.717Z,1.40
2022-08-22T06:07:17.199Z,1.35
2022-08-22T06:12:32.463Z,1.60
2022-08-22T06:17:48.374Z,1.88
2022-08-22T06:23:06.335Z,1.30
2022-08-22T06:28:21.612Z,1.20
2022-08-22T06:33:35.491Z,2.05
2022-08-22T06:39:02.275Z,2.13
2022-08-22T06:44:15.649Z,4.53
2022-08-22T06:49:29.485Z,1.95
2022-08-22T06:54:49.075Z,2.05
2022-08-22T07:00:02.410Z,2.00
2022-08-22T07:05:25.288Z,2.42
2022-08-22T07:10:41.495Z,1.92
2022-08-22T07:16:02.240Z,2.03
2022-08-22T07:21:16.625Z,2.45
2022-08-22T07:26:51.405Z,2.92
2022-08-22T07:32:11.104Z,3.20
2022-08-22T07:37:31.607Z,3.28
2022-08-22T07:42:51.669Z,2.00
2022-08-22T07:48:25.858Z,2.72
2022-08-22T07:53:48.617Z,2.40
2022-08-22T07:59:09.893Z,2.95
2022-08-22T08:04:28.313Z,2.47
2022-08-22T08:09:47.773Z,2.20
2022-08-22T08:15:03.606Z,2.35
2022-08-22T08:20:20.526Z,1.55
2022-08-22T08:25:37.615Z,1.98
2022-08-22T08:30:55.598Z,1.60
2022-08-22T08:36:12.406Z,2.35
2022-08-22T08:41:48.798Z,2.15
2022-08-22T08:47:39.899Z,2.55
2022-08-22T08:53:14.119Z,3.60
2022-08-22T08:58:50.972Z,3.83
2022-08-22T09:04:32.118Z,2.97
2022-08-22T09:10:02.063Z,2.30
2022-08-22T09:15:31.396Z,2.70
2022-08-22T09:21:30.574Z,1.83
2022-08-22T09:26:57.317Z,2.45
2022-08-22T09:32:16.426Z,2.45
2022-08-22T09:37:41.027Z,2.40
2022-08-22T09:43:01.583Z,1.73
2022-08-22T09:48:22.086Z,1.95
2022-08-22T09:53:57.224Z,2.25
2022-08-22T09:59:17.128Z,2.53
2022-08-22T10:04:49.043Z,2.63
2022-08-22T10:10:09.721Z,2.00
2022-08-22T10:15:30.549Z,2.50
2022-08-22T10:20:53.898Z,2.15
2022-08-22T10:26:29.728Z,2.85
2022-08-22T10:31:59.390Z,2.03
2022-08-22T10:37:23.833Z,2.10
2022-08-22T10:42:40.652Z,2.28
2022-08-22T10:48:39.629Z,3.55
2022-08-22T10:54:08.421Z,2.17
2022-08-22T10:59:39.693Z,2.10
2022-08-22T11:05:20.839Z,2.25
2022-08-22T11:10:43.355Z,2.72
2022-08-22T11:16:13.671Z,2.97
2022-08-22T11:21:35.703Z,1.65
2022-08-22T11:26:51.270Z,2.70
2022-08-22T11:32:12.681Z,1.80
2022-08-22T11:37:59.185Z,1.60
2022-08-22T11:43:32.469Z,1.67
2022-08-22T11:48:51.524Z,2.70
2022-08-22T11:54:14.941Z,1.70
2022-08-22T11:59:40.086Z,1.25
2022-08-22T12:05:03.333Z,1.60
2022-08-22T12:10:24.818Z,1.30
2022-08-22T12:15:46.271Z,1.33
2022-08-22T12:21:23.266Z,1.20
2022-08-22T12:26:49.256Z,0.90
2022-08-22T12:32:52.223Z,1.40
2022-08-22T12:38:28.055Z,2.05
2022-08-22T12:43:56.909Z,4.22
2022-08-22T12:49:22.668Z,4.20
2022-08-22T12:54:54.074Z,2.53
2022-08-22T13:00:23.149Z,2.45
2022-08-22T13:05:42.119Z,1.65
2022-08-22T13:10:59.068Z,2.97
2022-08-22T13:16:16.174Z,2.58
2022-08-22T13:21:36.244Z,1.90
2022-08-22T13:26:54.726Z,2.47
2022-08-22T13:32:11.712Z,2.70
2022-08-22T13:37:29.054Z,2.92
2022-08-22T13:42:47.807Z,2.45
2022-08-22T13:48:08.871Z,5.30
2022-08-22T13:53:37.264Z,3.25
2022-08-22T13:58:52.810Z,2.55
2022-08-22T14:04:32.263Z,2.33
2022-08-22T14:09:54.547Z,3.13
2022-08-22T14:15:10.040Z,3.05
2022-08-22T14:20:32.298Z,1.52
2022-08-22T14:25:48.128Z,1.90
2022-08-22T14:31:07.075Z,1.73
2022-08-22T14:36:29.866Z,2.88
2022-08-22T14:41:52.395Z,2.53
2022-08-22T14:47:36.823Z,2.30
2022-08-22T14:52:55.901Z,2.15
2022-08-22T14:58:13.985Z,2.45
2022-08-22T15:03:37.140Z,2.40
2022-08-22T15:08:58.857Z,1.80
2022-08-22T15:14:18.979Z,3.45
2022-08-22T15:19:37.133Z,2.20
2022-08-22T15:25:03.609Z,1.60
2022-08-22T15:30:20.944Z,2.75
2022-08-22T15:35:39.832Z,7.20
2022-08-22T15:40:56.133Z,2.70
2022-08-22T15:46:36.690Z,2.10
2022-08-22T15:51:53.693Z,2.13
2022-08-22T15:57:25.993Z,3.33
2022-08-22T16:02:45.718Z,2.53
2022-08-22T16:08:08.803Z,3.38
2022-08-22T16:13:48.681Z,2.30
2022-08-22T16:19:24.543Z,3.05
2022-08-22T16:24:44.559Z,2.17
2022-08-22T16:30:18.584Z,2.65
2022-08-22T16:35:57.995Z,2.45
2022-08-22T16:41:11.854Z,2.22
2022-08-22T16:46:38.742Z,2.35
2022-08-22T16:52:19.987Z,2.90
2022-08-22T16:57:36.466Z,2.50
2022-08-22T17:03:06.036Z,4.47
2022-08-22T17:08:51.931Z,2.42
2022-08-22T17:14:25.322Z,2.05
2022-08-22T17:19:56.158Z,2.80
2022-08-22T17:25:22.379Z,2.60
2022-08-22T17:30:43.786Z,3.03
2022-08-22T17:36:27.155Z,2.20
2022-08-22T17:41:51.218Z,3.13
2022-08-22T17:47:15.357Z,2.55
2022-08-22T17:52:37.055Z,2.55
2022-08-22T17:57:58.741Z,2.90
2022-08-22T18:03:21.450Z,2.45
2022-08-22T18:14:21.935Z,3.03
2022-08-22T18:19:51.315Z,2.80
2022-08-22T18:25:32.249Z,2.97
2022-08-22T18:52:57.450Z,2.78
2022-08-22T19:10:32.392Z,2.70
2022-08-22T19:39:09.225Z,3.47
2022-08-22T19:44:43.176Z,3.65
2022-08-22T19:50:10.165Z,4.05
2022-08-22T19:55:32.970Z,3.78
2022-08-22T20:00:57.820Z,3.53
2022-08-22T20:06:40.773Z,4.35
2022-08-22T20:12:00.240Z,3.90
2022-08-22T20:18:11.547Z,3.95
2022-08-22T20:23:29.192Z,4.05
2022-08-22T20:28:55.146Z,3.70
2022-08-22T20:34:09.404Z,4.40
2022-08-22T20:39:23.929Z,4.40
2022-08-22T20:44:40.092Z,4.57
2022-08-22T20:49:51.656Z,4.45
2022-08-22T20:55:08.951Z,4.70
2022-08-22T21:00:25.151Z,4.40
2022-08-22T21:05:42.110Z,4.70
2022-08-22T21:11:16.075Z,5.05
2022-08-22T21:16:36.424Z,5.20
2022-08-22T21:21:45.751Z,4.80
2022-08-22T21:26:58.175Z,4.88
2022-08-22T21:32:16.864Z,5.30
2022-08-22T21:37:30.479Z,4.72
2022-08-22T21:42:43.863Z,5.38
2022-08-22T21:47:56.807Z,5.20
2022-08-22T21:53:10.292Z,4.40
2022-08-22T21:58:38.571Z,4.78
2022-08-22T22:03:51.296Z,4.65
2022-08-22T22:08:59.380Z,4.82
2022-08-22T22:14:07.255Z,4.57
2022-08-22T22:19:19.103Z,4.20
2022-08-22T22:24:26.683Z,4.95
2022-08-22T22:29:33.816Z,4.50
2022-08-22T22:34:43.805Z,4.22
2022-08-22T22:39:52.133Z,4.15
2022-08-22T22:44:59.371Z,4.43
2022-08-22T22:50:15.472Z,4.65
2022-08-22T22:55:26.857Z,4.57
2022-08-22T23:00:40.341Z,4.57
2022-08-22T23:05:54.546Z,4.60
2022-08-22T23:11:01.675Z,4.63
2022-08-22T23:16:11.148Z,4.60
2022-08-22T23:21:24.005Z,4.43
2022-08-22T23:31:44.962Z,4.88
2022-08-22T23:37:05.774Z,4.63
2022-08-22T23:42:20.265Z,4.70
2022-08-22T23:47:29.367Z,4.22
2022-08-22T23:52:39.777Z,4.75
2022-08-22T23:57:46.650Z,5.38
